sensor_id;sensor_type;location;lat;lon;timestamp;P1;durP1;ratioP1;P2;durP2;ratioP2
82242;SDS011;71844;51.528;4.442;2023-12-14T00:00:54;11.85;;;4.85;;
82242;SDS011;71844;51.528;4.442;2023-12-14T00:03:21;12.38;;;5.03;;
82242;SDS011;71844;51.528;4.442;2023-12-14T00:05:48;11.57;;;4.45;;
82242;SDS011;71844;51.528;4.442;2023-12-14T00:08:15;11.00;;;4.63;;
82242;SDS011;71844;51.528;4.442;2023-12-14T00:10:42;12.00;;;4.93;;
82242;SDS011;71844;51.528;4.442;2023-12-14T00:13:09;12.68;;;5.05;;
82242;SDS011;71844;51.528;4.442;2023-12-14T00:15:36;13.25;;;5.85;;
82242;SDS011;71844;51.528;4.442;2023-12-14T00:18:03;11.27;;;5.45;;
82242;SDS011;71844;51.528;4.442;2023-12-14T00:20:29;11.88;;;5.53;;
82242;SDS011;71844;51.528;4.442;2023-12-14T00:22:56;12.38;;;5.72;;
82242;SDS011;71844;51.528;4.442;2023-12-14T00:25:23;10.55;;;5.60;;
82242;SDS011;71844;51.528;4.442;2023-12-14T00:27:50;12.02;;;5.75;;
82242;SDS011;71844;51.528;4.442;2023-12-14T00:30:17;11.27;;;5.55;;
82242;SDS011;71844;51.528;4.442;2023-12-14T00:32:44;12.93;;;4.93;;
82242;SDS011;71844;51.528;4.442;2023-12-14T00:35:11;12.60;;;5.10;;
82242;SDS011;71844;51.528;4.442;2023-12-14T00:37:41;11.27;;;5.05;;
82242;SDS011;71844;51.528;4.442;2023-12-14T00:40:08;9.10;;;4.15;;
82242;SDS011;71844;51.528;4.442;2023-12-14T00:42:35;10.60;;;4.75;;
82242;SDS011;71844;51.528;4.442;2023-12-14T00:45:02;10.50;;;4.80;;
82242;SDS011;71844;51.528;4.442;2023-12-14T00:47:29;8.75;;;4.57;;
82242;SDS011;71844;51.528;4.442;2023-12-14T00:49:56;8.32;;;4.15;;
82242;SDS011;71844;51.528;4.442;2023-12-14T00:52:23;7.85;;;4.13;;
82242;SDS011;71844;51.528;4.442;2023-12-14T00:54:50;9.85;;;4.78;;
82242;SDS011;71844;51.528;4.442;2023-12-14T00:57:17;8.70;;;3.95;;
82242;SDS011;71844;51.528;4.442;2023-12-14T00:59:43;8.20;;;4.07;;
82242;SDS011;71844;51.528;4.442;2023-12-14T01:02:10;10.93;;;4.35;;
82242;SDS011;71844;51.528;4.442;2023-12-14T01:04:38;8.90;;;3.85;;
82242;SDS011;71844;51.528;4.442;2023-12-14T01:07:04;10.57;;;3.72;;
82242;SDS011;71844;51.528;4.442;2023-12-14T01:09:31;10.30;;;5.05;;
82242;SDS011;71844;51.528;4.442;2023-12-14T01:11:58;12.93;;;4.80;;
82242;SDS011;71844;51.528;4.442;2023-12-14T01:14:25;10.35;;;4.65;;
82242;SDS011;71844;51.528;4.442;2023-12-14T01:16:52;7.55;;;3.70;;
82242;SDS011;71844;51.528;4.442;2023-12-14T01:19:19;11.82;;;5.55;;
82242;SDS011;71844;51.528;4.442;2023-12-14T01:21:46;11.15;;;4.15;;
82242;SDS011;71844;51.528;4.442;2023-12-14T01:24:13;9.82;;;4.70;;
82242;SDS011;71844;51.528;4.442;2023-12-14T01:26:40;9.43;;;4.28;;
82242;SDS011;71844;51.528;4.442;2023-12-14T01:29:07;10.90;;;4.45;;
82242;SDS011;71844;51.528;4.442;2023-12-14T01:31:34;12.15;;;5.28;;
82242;SDS011;71844;51.528;4.442;2023-12-14T01:34:01;13.23;;;5.30;;
82242;SDS011;71844;51.528;4.442;2023-12-14T01:36:28;10.45;;;5.18;;
82242;SDS011;71844;51.528;4.442;2023-12-14T01:38:55;12.57;;;5.38;;
82242;SDS011;71844;51.528;4.442;2023-12-14T01:41:21;12.13;;;5.85;;
82242;SDS011;71844;51.528;4.442;2023-12-14T01:54:35;6.65;;;3.90;;
82242;SDS011;71844;51.528;4.442;2023-12-14T01:57:02;8.98;;;4.32;;
82242;SDS011;71844;51.528;4.442;2023-12-14T01:59:29;9.30;;;4.18;;
82242;SDS011;71844;51.528;4.442;2023-12-14T02:01:56;7.45;;;4.47;;
82242;SDS011;71844;51.528;4.442;2023-12-14T02:04:23;7.60;;;4.15;;
82242;SDS011;71844;51.528;4.442;2023-12-14T02:06:54;11.35;;;5.38;;
82242;SDS011;71844;51.528;4.442;2023-12-14T02:09:20;8.00;;;4.20;;
82242;SDS011;71844;51.528;4.442;2023-12-14T02:11:47;8.60;;;4.43;;
82242;SDS011;71844;51.528;4.442;2023-12-14T02:14:14;7.13;;;4.00;;
82242;SDS011;71844;51.528;4.442;2023-12-14T02:16:41;7.35;;;4.20;;
82242;SDS011;71844;51.528;4.442;2023-12-14T02:19:08;8.85;;;4.63;;
82242;SDS011;71844;51.528;4.442;2023-12-14T02:21:35;8.10;;;4.38;;
82242;SDS011;71844;51.528;4.442;2023-12-14T02:24:02;7.30;;;4.32;;
82242;SDS011;71844;51.528;4.442;2023-12-14T02:26:29;7.47;;;4.32;;
82242;SDS011;71844;51.528;4.442;2023-12-14T02:28:56;7.10;;;4.05;;
82242;SDS011;71844;51.528;4.442;2023-12-14T02:31:22;7.57;;;3.92;;
82242;SDS011;71844;51.528;4.442;2023-12-14T02:33:49;8.38;;;4.93;;
82242;SDS011;71844;51.528;4.442;2023-12-14T02:36:16;7.22;;;4.75;;
82242;SDS011;71844;51.528;4.442;2023-12-14T02:38:43;6.97;;;3.90;;
82242;SDS011;71844;51.528;4.442;2023-12-14T02:41:10;7.22;;;3.95;;
82242;SDS011;71844;51.528;4.442;2023-12-14T02:43:37;7.30;;;4.03;;
82242;SDS011;71844;51.528;4.442;2023-12-14T02:46:06;6.32;;;4.20;;
82242;SDS011;71844;51.528;4.442;2023-12-14T02:48:34;9.10;;;5.13;;
82242;SDS011;71844;51.528;4.442;2023-12-14T02:51:01;11.43;;;5.00;;
82242;SDS011;71844;51.528;4.442;2023-12-14T02:53:29;7.35;;;4.15;;
82242;SDS011;71844;51.528;4.442;2023-12-14T02:55:55;9.05;;;4.90;;
82242;SDS011;71844;51.528;4.442;2023-12-14T02:58:22;7.93;;;4.75;;
82242;SDS011;71844;51.528;4.442;2023-12-14T03:00:49;7.82;;;4.63;;
82242;SDS011;71844;51.528;4.442;2023-12-14T03:03:16;6.90;;;4.38;;
82242;SDS011;71844;51.528;4.442;2023-12-14T03:05:43;7.55;;;4.68;;
82242;SDS011;71844;51.528;4.442;2023-12-14T03:08:10;7.70;;;4.38;;
82242;SDS011;71844;51.528;4.442;2023-12-14T03:10:36;7.65;;;4.25;;
82242;SDS011;71844;51.528;4.442;2023-12-14T03:13:03;7.50;;;4.15;;
82242;SDS011;71844;51.528;4.442;2023-12-14T03:15:30;7.75;;;3.78;;
82242;SDS011;71844;51.528;4.442;2023-12-14T03:17:57;8.02;;;3.72;;
82242;SDS011;71844;51.528;4.442;2023-12-14T03:20:24;8.93;;;4.07;;
82242;SDS011;71844;51.528;4.442;2023-12-14T03:22:51;8.25;;;3.85;;
82242;SDS011;71844;51.528;4.442;2023-12-14T03:25:18;6.90;;;3.97;;
82242;SDS011;71844;51.528;4.442;2023-12-14T03:27:48;7.65;;;4.15;;
82242;SDS011;71844;51.528;4.442;2023-12-14T03:30:14;7.80;;;4.55;;
82242;SDS011;71844;51.528;4.442;2023-12-14T03:32:41;7.43;;;3.80;;
82242;SDS011;71844;51.528;4.442;2023-12-14T03:35:09;6.57;;;4.10;;
82242;SDS011;71844;51.528;4.442;2023-12-14T03:37:35;7.80;;;3.95;;
82242;SDS011;71844;51.528;4.442;2023-12-14T03:40:03;6.63;;;3.97;;
82242;SDS011;71844;51.528;4.442;2023-12-14T03:42:30;6.13;;;3.30;;
82242;SDS011;71844;51.528;4.442;2023-12-14T03:44:57;7.72;;;4.15;;
82242;SDS011;71844;51.528;4.442;2023-12-14T03:47:24;7.93;;;4.72;;
82242;SDS011;71844;51.528;4.442;2023-12-14T03:49:51;8.45;;;4.50;;
82242;SDS011;71844;51.528;4.442;2023-12-14T03:52:18;8.25;;;5.00;;
82242;SDS011;71844;51.528;4.442;2023-12-14T03:54:44;7.70;;;4.43;;
82242;SDS011;71844;51.528;4.442;2023-12-14T03:57:11;9.27;;;4.60;;
82242;SDS011;71844;51.528;4.442;2023-12-14T03:59:38;8.25;;;4.57;;
82242;SDS011;71844;51.528;4.442;2023-12-14T04:02:06;9.57;;;5.35;;
82242;SDS011;71844;51.528;4.442;2023-12-14T04:04:34;10.10;;;5.22;;
82242;SDS011;71844;51.528;4.442;2023-12-14T04:07:01;9.73;;;5.55;;
82242;SDS011;71844;51.528;4.442;2023-12-14T04:09:28;9.95;;;4.38;;
82242;SDS011;71844;51.528;4.442;2023-12-14T04:11:54;7.22;;;4.18;;
82242;SDS011;71844;51.528;4.442;2023-12-14T04:14:21;8.48;;;4.75;;
82242;SDS011;71844;51.528;4.442;2023-12-14T04:16:48;11.27;;;5.47;;
82242;SDS011;71844;51.528;4.442;2023-12-14T04:19:15;9.73;;;4.70;;
82242;SDS011;71844;51.528;4.442;2023-12-14T04:21:42;10.35;;;5.35;;
82242;SDS011;71844;51.528;4.442;2023-12-14T04:24:09;11.23;;;5.53;;
82242;SDS011;71844;51.528;4.442;2023-12-14T04:26:35;9.63;;;4.88;;
82242;SDS011;71844;51.528;4.442;2023-12-14T04:29:03;8.13;;;4.40;;
82242;SDS011;71844;51.528;4.442;2023-12-14T04:31:31;8.00;;;4.18;;
82242;SDS011;71844;51.528;4.442;2023-12-14T04:33:58;8.75;;;5.00;;
82242;SDS011;71844;51.528;4.442;2023-12-14T04:36:25;10.35;;;4.90;;
82242;SDS011;71844;51.528;4.442;2023-12-14T04:38:51;8.20;;;4.43;;
82242;SDS011;71844;51.528;4.442;2023-12-14T04:41:18;10.18;;;4.95;;
82242;SDS011;71844;51.528;4.442;2023-12-14T04:43:48;6.45;;;3.55;;
82242;SDS011;71844;51.528;4.442;2023-12-14T04:46:15;10.30;;;4.70;;
82242;SDS011;71844;51.528;4.442;2023-12-14T04:48:42;7.85;;;4.22;;
82242;SDS011;71844;51.528;4.442;2023-12-14T04:51:13;7.72;;;4.60;;
82242;SDS011;71844;51.528;4.442;2023-12-14T04:53:40;7.63;;;3.92;;
82242;SDS011;71844;51.528;4.442;2023-12-14T04:56:10;7.80;;;4.22;;
82242;SDS011;71844;51.528;4.442;2023-12-14T04:58:38;6.82;;;4.30;;
82242;SDS011;71844;51.528;4.442;2023-12-14T05:01:06;9.07;;;4.82;;
82242;SDS011;71844;51.528;4.442;2023-12-14T05:03:34;5.97;;;3.72;;
82242;SDS011;71844;51.528;4.442;2023-12-14T05:06:01;8.50;;;4.50;;
82242;SDS011;71844;51.528;4.442;2023-12-14T05:08:28;8.75;;;4.55;;
82242;SDS011;71844;51.528;4.442;2023-12-14T05:10:55;10.13;;;5.65;;
82242;SDS011;71844;51.528;4.442;2023-12-14T05:13:22;8.15;;;4.10;;
82242;SDS011;71844;51.528;4.442;2023-12-14T05:15:49;9.68;;;4.55;;
82242;SDS011;71844;51.528;4.442;2023-12-14T05:18:18;9.45;;;4.72;;
82242;SDS011;71844;51.528;4.442;2023-12-14T05:20:45;8.48;;;4.10;;
82242;SDS011;71844;51.528;4.442;2023-12-14T05:23:12;9.73;;;4.93;;
82242;SDS011;71844;51.528;4.442;2023-12-14T05:25:39;7.07;;;4.10;;
82242;SDS011;71844;51.528;4.442;2023-12-14T05:28:06;8.63;;;4.32;;
82242;SDS011;71844;51.528;4.442;2023-12-14T05:30:33;7.05;;;3.97;;
82242;SDS011;71844;51.528;4.442;2023-12-14T05:33:00;8.27;;;3.80;;
82242;SDS011;71844;51.528;4.442;2023-12-14T05:35:28;6.40;;;3.83;;
82242;SDS011;71844;51.528;4.442;2023-12-14T05:37:54;9.02;;;3.90;;
82242;SDS011;71844;51.528;4.442;2023-12-14T05:40:21;8.05;;;3.88;;
82242;SDS011;71844;51.528;4.442;2023-12-14T05:42:48;6.97;;;3.45;;
82242;SDS011;71844;51.528;4.442;2023-12-14T05:45:15;8.32;;;3.97;;
82242;SDS011;71844;51.528;4.442;2023-12-14T05:47:44;7.63;;;3.85;;
82242;SDS011;71844;51.528;4.442;2023-12-14T05:50:11;7.95;;;4.45;;
82242;SDS011;71844;51.528;4.442;2023-12-14T05:52:39;6.63;;;3.83;;
82242;SDS011;71844;51.528;4.442;2023-12-14T05:55:09;7.50;;;3.17;;
82242;SDS011;71844;51.528;4.442;2023-12-14T05:57:37;9.18;;;3.53;;
82242;SDS011;71844;51.528;4.442;2023-12-14T06:00:04;7.20;;;3.15;;
82242;SDS011;71844;51.528;4.442;2023-12-14T06:02:33;8.38;;;3.35;;
82242;SDS011;71844;51.528;4.442;2023-12-14T06:05:03;8.23;;;4.03;;
82242;SDS011;71844;51.528;4.442;2023-12-14T06:07:30;8.18;;;4.40;;
82242;SDS011;71844;51.528;4.442;2023-12-14T06:09:57;7.85;;;3.63;;
82242;SDS011;71844;51.528;4.442;2023-12-14T06:12:24;6.05;;;3.35;;
82242;SDS011;71844;51.528;4.442;2023-12-14T06:14:51;8.88;;;2.88;;
82242;SDS011;71844;51.528;4.442;2023-12-14T06:17:18;9.93;;;3.90;;
82242;SDS011;71844;51.528;4.442;2023-12-14T06:19:45;9.70;;;3.70;;
82242;SDS011;71844;51.528;4.442;2023-12-14T06:22:12;7.72;;;2.70;;
82242;SDS011;71844;51.528;4.442;2023-12-14T06:24:39;8.35;;;3.40;;
82242;SDS011;71844;51.528;4.442;2023-12-14T06:27:07;6.25;;;3.15;;
82242;SDS011;71844;51.528;4.442;2023-12-14T06:29:34;7.95;;;3.83;;
82242;SDS011;71844;51.528;4.442;2023-12-14T06:32:02;5.50;;;3.40;;
82242;SDS011;71844;51.528;4.442;2023-12-14T06:34:29;6.60;;;3.25;;
82242;SDS011;71844;51.528;4.442;2023-12-14T06:36:56;7.40;;;3.72;;
82242;SDS011;71844;51.528;4.442;2023-12-14T06:39:24;5.75;;;2.85;;
82242;SDS011;71844;51.528;4.442;2023-12-14T06:41:54;5.70;;;2.83;;
82242;SDS011;71844;51.528;4.442;2023-12-14T06:44:22;7.63;;;2.95;;
82242;SDS011;71844;51.528;4.442;2023-12-14T06:46:51;9.13;;;4.28;;
82242;SDS011;71844;51.528;4.442;2023-12-14T06:49:18;12.15;;;3.65;;
82242;SDS011;71844;51.528;4.442;2023-12-14T06:51:45;8.52;;;3.03;;
82242;SDS011;71844;51.528;4.442;2023-12-14T06:54:12;5.45;;;3.08;;
82242;SDS011;71844;51.528;4.442;2023-12-14T06:56:39;6.15;;;3.20;;
82242;SDS011;71844;51.528;4.442;2023-12-14T06:59:05;6.07;;;2.72;;
82242;SDS011;71844;51.528;4.442;2023-12-14T07:01:32;7.65;;;3.22;;
82242;SDS011;71844;51.528;4.442;2023-12-14T07:03:59;6.85;;;3.20;;
82242;SDS011;71844;51.528;4.442;2023-12-14T07:06:26;4.60;;;2.63;;
82242;SDS011;71844;51.528;4.442;2023-12-14T07:08:53;5.32;;;2.88;;
82242;SDS011;71844;51.528;4.442;2023-12-14T07:11:20;4.85;;;2.47;;
82242;SDS011;71844;51.528;4.442;2023-12-14T07:13:47;6.32;;;2.67;;
82242;SDS011;71844;51.528;4.442;2023-12-14T07:16:14;6.60;;;3.60;;
82242;SDS011;71844;51.528;4.442;2023-12-14T07:18:41;6.07;;;2.78;;
82242;SDS011;71844;51.528;4.442;2023-12-14T07:21:08;6.40;;;2.75;;
82242;SDS011;71844;51.528;4.442;2023-12-14T07:23:36;7.40;;;3.15;;
82242;SDS011;71844;51.528;4.442;2023-12-14T07:26:03;5.65;;;3.38;;
82242;SDS011;71844;51.528;4.442;2023-12-14T07:31:00;7.03;;;2.78;;
82242;SDS011;71844;51.528;4.442;2023-12-14T07:33:27;4.80;;;2.60;;
82242;SDS011;71844;51.528;4.442;2023-12-14T07:35:54;6.82;;;3.00;;
82242;SDS011;71844;51.528;4.442;2023-12-14T07:38:20;4.85;;;2.83;;
82242;SDS011;71844;51.528;4.442;2023-12-14T07:40:47;5.35;;;3.08;;
82242;SDS011;71844;51.528;4.442;2023-12-14T07:43:16;6.82;;;3.42;;
82242;SDS011;71844;51.528;4.442;2023-12-14T07:45:43;4.32;;;2.38;;
82242;SDS011;71844;51.528;4.442;2023-12-14T07:48:12;5.38;;;2.55;;
82242;SDS011;71844;51.528;4.442;2023-12-14T07:50:39;5.32;;;2.58;;
82242;SDS011;71844;51.528;4.442;2023-12-14T07:53:06;5.43;;;2.63;;
82242;SDS011;71844;51.528;4.442;2023-12-14T07:55:33;5.80;;;2.60;;
82242;SDS011;71844;51.528;4.442;2023-12-14T07:58:00;4.28;;;2.22;;
82242;SDS011;71844;51.528;4.442;2023-12-14T08:00:28;4.43;;;2.35;;
82242;SDS011;71844;51.528;4.442;2023-12-14T08:02:55;5.50;;;2.97;;
82242;SDS011;71844;51.528;4.442;2023-12-14T08:05:21;4.55;;;2.45;;
82242;SDS011;71844;51.528;4.442;2023-12-14T08:07:48;4.38;;;2.38;;
82242;SDS011;71844;51.528;4.442;2023-12-14T08:12:45;6.47;;;2.72;;
82242;SDS011;71844;51.528;4.442;2023-12-14T08:15:13;6.22;;;3.15;;
82242;SDS011;71844;51.528;4.442;2023-12-14T08:17:40;5.03;;;2.40;;
82242;SDS011;71844;51.528;4.442;2023-12-14T08:20:07;3.60;;;1.88;;
82242;SDS011;71844;51.528;4.442;2023-12-14T08:22:37;4.70;;;2.50;;
82242;SDS011;71844;51.528;4.442;2023-12-14T08:25:04;3.88;;;2.10;;
82242;SDS011;71844;51.528;4.442;2023-12-14T08:27:31;4.80;;;2.03;;
82242;SDS011;71844;51.528;4.442;2023-12-14T08:29:58;6.55;;;2.58;;
82242;SDS011;71844;51.528;4.442;2023-12-14T08:32:25;5.50;;;2.90;;
82242;SDS011;71844;51.528;4.442;2023-12-14T08:34:52;5.45;;;2.88;;
82242;SDS011;71844;51.528;4.442;2023-12-14T08:37:19;6.97;;;2.92;;
82242;SDS011;71844;51.528;4.442;2023-12-14T08:39:46;5.00;;;2.95;;
82242;SDS011;71844;51.528;4.442;2023-12-14T08:42:13;4.03;;;2.50;;
82242;SDS011;71844;51.528;4.442;2023-12-14T08:44:40;5.88;;;2.65;;
82242;SDS011;71844;51.528;4.442;2023-12-14T08:47:07;4.47;;;2.20;;
82242;SDS011;71844;51.528;4.442;2023-12-14T08:49:35;4.53;;;1.95;;
82242;SDS011;71844;51.528;4.442;2023-12-14T08:52:02;4.70;;;2.55;;
82242;SDS011;71844;51.528;4.442;2023-12-14T08:54:30;5.90;;;2.70;;
82242;SDS011;71844;51.528;4.442;2023-12-14T08:56:57;5.32;;;2.70;;
82242;SDS011;71844;51.528;4.442;2023-12-14T08:59:24;4.88;;;2.85;;
82242;SDS011;71844;51.528;4.442;2023-12-14T09:01:51;5.00;;;3.05;;
82242;SDS011;71844;51.528;4.442;2023-12-14T09:04:19;5.70;;;2.63;;
82242;SDS011;71844;51.528;4.442;2023-12-14T09:06:47;6.28;;;2.90;;
82242;SDS011;71844;51.528;4.442;2023-12-14T09:09:14;4.47;;;2.80;;
82242;SDS011;71844;51.528;4.442;2023-12-14T09:11:41;5.45;;;3.10;;
82242;SDS011;71844;51.528;4.442;2023-12-14T09:14:08;6.63;;;2.78;;
82242;SDS011;71844;51.528;4.442;2023-12-14T09:16:34;4.15;;;2.38;;
82242;SDS011;71844;51.528;4.442;2023-12-14T09:19:01;4.40;;;2.90;;
82242;SDS011;71844;51.528;4.442;2023-12-14T09:21:28;4.85;;;3.03;;
82242;SDS011;71844;51.528;4.442;2023-12-14T09:24:09;4.32;;;2.70;;
82242;SDS011;71844;51.528;4.442;2023-12-14T09:26:39;5.03;;;2.88;;
82242;SDS011;71844;51.528;4.442;2023-12-14T09:29:06;6.03;;;3.45;;
82242;SDS011;71844;51.528;4.442;2023-12-14T09:31:34;5.40;;;3.03;;
82242;SDS011;71844;51.528;4.442;2023-12-14T09:34:01;6.03;;;2.97;;
82242;SDS011;71844;51.528;4.442;2023-12-14T09:36:28;8.52;;;3.22;;
82242;SDS011;71844;51.528;4.442;2023-12-14T09:38:55;5.90;;;3.45;;
82242;SDS011;71844;51.528;4.442;2023-12-14T09:41:22;4.30;;;2.45;;
82242;SDS011;71844;51.528;4.442;2023-12-14T09:43:49;4.05;;;2.47;;
82242;SDS011;71844;51.528;4.442;2023-12-14T09:46:17;5.05;;;3.55;;
82242;SDS011;71844;51.528;4.442;2023-12-14T09:48:45;5.60;;;2.75;;
82242;SDS011;71844;51.528;4.442;2023-12-14T09:51:13;4.88;;;2.78;;
82242;SDS011;71844;51.528;4.442;2023-12-14T09:53:40;5.85;;;2.97;;
82242;SDS011;71844;51.528;4.442;2023-12-14T09:56:07;5.68;;;3.15;;
82242;SDS011;71844;51.528;4.442;2023-12-14T09:58:34;4.35;;;2.42;;
82242;SDS011;71844;51.528;4.442;2023-12-14T10:01:01;5.53;;;3.20;;
82242;SDS011;71844;51.528;4.442;2023-12-14T10:03:30;6.10;;;3.60;;
82242;SDS011;71844;51.528;4.442;2023-12-14T10:05:59;5.15;;;3.47;;
82242;SDS011;71844;51.528;4.442;2023-12-14T10:10:55;3.97;;;2.45;;
82242;SDS011;71844;51.528;4.442;2023-12-14T10:13:44;6.05;;;2.20;;
82242;SDS011;71844;51.528;4.442;2023-12-14T10:16:09;4.80;;;2.55;;
82242;SDS011;71844;51.528;4.442;2023-12-14T10:18:37;3.95;;;2.70;;
82242;SDS011;71844;51.528;4.442;2023-12-14T10:21:08;34.22;;;5.15;;
82242;SDS011;71844;51.528;4.442;2023-12-14T10:23:35;7.60;;;3.58;;
82242;SDS011;71844;51.528;4.442;2023-12-14T10:26:01;4.90;;;3.17;;
82242;SDS011;71844;51.528;4.442;2023-12-14T10:28:30;4.28;;;2.72;;
82242;SDS011;71844;51.528;4.442;2023-12-14T10:30:57;5.53;;;2.88;;
82242;SDS011;71844;51.528;4.442;2023-12-14T10:33:24;6.10;;;3.40;;
82242;SDS011;71844;51.528;4.442;2023-12-14T10:35:52;7.18;;;3.45;;
82242;SDS011;71844;51.528;4.442;2023-12-14T10:38:19;5.57;;;2.90;;
82242;SDS011;71844;51.528;4.442;2023-12-14T10:40:47;9.60;;;3.28;;
82242;SDS011;71844;51.528;4.442;2023-12-14T10:43:14;5.72;;;2.60;;
82242;SDS011;71844;51.528;4.442;2023-12-14T10:46:02;5.22;;;3.33;;
82242;SDS011;71844;51.528;4.442;2023-12-14T10:48:34;4.90;;;2.72;;
82242;SDS011;71844;51.528;4.442;2023-12-14T10:51:07;4.05;;;2.42;;
82242;SDS011;71844;51.528;4.442;2023-12-14T10:53:36;5.35;;;3.28;;
82242;SDS011;71844;51.528;4.442;2023-12-14T10:56:04;6.47;;;3.10;;
82242;SDS011;71844;51.528;4.442;2023-12-14T10:58:50;4.88;;;2.97;;
82242;SDS011;71844;51.528;4.442;2023-12-14T11:01:20;8.18;;;3.85;;
82242;SDS011;71844;51.528;4.442;2023-12-14T11:03:53;5.57;;;3.22;;
82242;SDS011;71844;51.528;4.442;2023-12-14T11:06:31;5.25;;;2.53;;
82242;SDS011;71844;51.528;4.442;2023-12-14T11:14:11;5.85;;;2.53;;
82242;SDS011;71844;51.528;4.442;2023-12-14T11:16:39;5.82;;;2.83;;
82242;SDS011;71844;51.528;4.442;2023-12-14T11:24:50;4.53;;;2.10;;
82242;SDS011;71844;51.528;4.442;2023-12-14T11:27:20;3.67;;;2.15;;
82242;SDS011;71844;51.528;4.442;2023-12-14T11:29:53;4.35;;;2.13;;
82242;SDS011;71844;51.528;4.442;2023-12-14T11:32:20;3.72;;;1.67;;
82242;SDS011;71844;51.528;4.442;2023-12-14T11:34:47;5.32;;;2.50;;
82242;SDS011;71844;51.528;4.442;2023-12-14T11:37:14;4.88;;;2.33;;
82242;SDS011;71844;51.528;4.442;2023-12-14T11:39:41;3.50;;;2.28;;
82242;SDS011;71844;51.528;4.442;2023-12-14T11:42:10;4.22;;;2.22;;
82242;SDS011;71844;51.528;4.442;2023-12-14T11:44:37;4.28;;;1.58;;
82242;SDS011;71844;51.528;4.442;2023-12-14T11:47:07;3.63;;;2.35;;
82242;SDS011;71844;51.528;4.442;2023-12-14T11:49:35;4.35;;;1.77;;
82242;SDS011;71844;51.528;4.442;2023-12-14T11:52:03;4.82;;;2.78;;
82242;SDS011;71844;51.528;4.442;2023-12-14T11:54:33;3.75;;;2.05;;
82242;SDS011;71844;51.528;4.442;2023-12-14T11:57:00;5.20;;;2.17;;
82242;SDS011;71844;51.528;4.442;2023-12-14T11:59:29;5.95;;;2.78;;
82242;SDS011;71844;51.528;4.442;2023-12-14T12:01:58;4.63;;;1.83;;
82242;SDS011;71844;51.528;4.442;2023-12-14T12:04:26;3.88;;;1.55;;
82242;SDS011;71844;51.528;4.442;2023-12-14T12:07:01;4.03;;;3.15;;
82242;SDS011;71844;51.528;4.442;2023-12-14T12:09:33;4.20;;;1.58;;
82242;SDS011;71844;51.528;4.442;2023-12-14T12:12:11;3.33;;;2.15;;
82242;SDS011;71844;51.528;4.442;2023-12-14T12:14:39;4.28;;;2.25;;
82242;SDS011;71844;51.528;4.442;2023-12-14T12:17:06;4.47;;;2.20;;
82242;SDS011;71844;51.528;4.442;2023-12-14T12:19:34;4.78;;;2.13;;
82242;SDS011;71844;51.528;4.442;2023-12-14T12:22:02;3.65;;;2.20;;
82242;SDS011;71844;51.528;4.442;2023-12-14T12:24:36;3.70;;;1.42;;
82242;SDS011;71844;51.528;4.442;2023-12-14T12:27:03;4.00;;;2.08;;
82242;SDS011;71844;51.528;4.442;2023-12-14T12:29:30;3.85;;;1.55;;
82242;SDS011;71844;51.528;4.442;2023-12-14T12:32:04;3.45;;;2.10;;
82242;SDS011;71844;51.528;4.442;2023-12-14T12:34:31;4.05;;;1.90;;
82242;SDS011;71844;51.528;4.442;2023-12-14T12:37:26;4.75;;;2.58;;
82242;SDS011;71844;51.528;4.442;2023-12-14T12:39:53;3.83;;;1.90;;
82242;SDS011;71844;51.528;4.442;2023-12-14T12:42:20;4.35;;;2.08;;
82242;SDS011;71844;51.528;4.442;2023-12-14T12:44:50;3.30;;;1.40;;
82242;SDS011;71844;51.528;4.442;2023-12-14T12:47:17;4.90;;;2.17;;
82242;SDS011;71844;51.528;4.442;2023-12-14T12:49:51;3.65;;;2.05;;
82242;SDS011;71844;51.528;4.442;2023-12-14T12:52:19;3.13;;;1.38;;
82242;SDS011;71844;51.528;4.442;2023-12-14T12:54:46;3.10;;;1.38;;
82242;SDS011;71844;51.528;4.442;2023-12-14T12:57:13;3.72;;;1.58;;
82242;SDS011;71844;51.528;4.442;2023-12-14T12:59:40;3.67;;;1.52;;
82242;SDS011;71844;51.528;4.442;2023-12-14T13:02:07;2.85;;;1.60;;
82242;SDS011;71844;51.528;4.442;2023-12-14T13:04:34;3.15;;;1.25;;
82242;SDS011;71844;51.528;4.442;2023-12-14T13:07:03;2.83;;;1.42;;
82242;SDS011;71844;51.528;4.442;2023-12-14T13:09:30;4.88;;;2.50;;
82242;SDS011;71844;51.528;4.442;2023-12-14T13:11:57;4.25;;;2.00;;
82242;SDS011;71844;51.528;4.442;2023-12-14T13:14:24;5.05;;;1.52;;
82242;SDS011;71844;51.528;4.442;2023-12-14T13:16:51;2.65;;;1.23;;
82242;SDS011;71844;51.528;4.442;2023-12-14T13:19:18;2.58;;;1.55;;
82242;SDS011;71844;51.528;4.442;2023-12-14T13:21:45;8.43;;;2.13;;
82242;SDS011;71844;51.528;4.442;2023-12-14T13:24:12;3.03;;;1.40;;
82242;SDS011;71844;51.528;4.442;2023-12-14T13:26:39;2.63;;;1.10;;
82242;SDS011;71844;51.528;4.442;2023-12-14T13:29:07;4.47;;;1.50;;
82242;SDS011;71844;51.528;4.442;2023-12-14T13:31:40;3.78;;;1.88;;
82242;SDS011;71844;51.528;4.442;2023-12-14T13:34:09;3.40;;;2.00;;
82242;SDS011;71844;51.528;4.442;2023-12-14T13:39:14;3.20;;;1.23;;
82242;SDS011;71844;51.528;4.442;2023-12-14T13:41:41;2.97;;;1.45;;
82242;SDS011;71844;51.528;4.442;2023-12-14T13:44:16;2.83;;;1.55;;
82242;SDS011;71844;51.528;4.442;2023-12-14T13:46:43;3.53;;;1.55;;
82242;SDS011;71844;51.528;4.442;2023-12-14T13:49:10;3.03;;;1.40;;
82242;SDS011;71844;51.528;4.442;2023-12-14T13:51:37;2.95;;;1.55;;
82242;SDS011;71844;51.528;4.442;2023-12-14T13:54:04;3.33;;;1.15;;
82242;SDS011;71844;51.528;4.442;2023-12-14T13:56:31;2.35;;;1.58;;
82242;SDS011;71844;51.528;4.442;2023-12-14T13:58:58;2.53;;;1.50;;
82242;SDS011;71844;51.528;4.442;2023-12-14T14:01:25;3.00;;;1.52;;
82242;SDS011;71844;51.528;4.442;2023-12-14T14:03:52;3.05;;;1.35;;
82242;SDS011;71844;51.528;4.442;2023-12-14T14:06:19;3.05;;;1.52;;
82242;SDS011;71844;51.528;4.442;2023-12-14T14:08:47;4.55;;;1.58;;
82242;SDS011;71844;51.528;4.442;2023-12-14T14:11:14;2.75;;;1.42;;
82242;SDS011;71844;51.528;4.442;2023-12-14T14:13:41;2.25;;;1.00;;
82242;SDS011;71844;51.528;4.442;2023-12-14T14:16:08;2.47;;;1.45;;
82242;SDS011;71844;51.528;4.442;2023-12-14T14:18:35;3.28;;;1.63;;
82242;SDS011;71844;51.528;4.442;2023-12-14T14:21:02;2.50;;;0.85;;
82242;SDS011;71844;51.528;4.442;2023-12-14T14:23:34;3.72;;;1.15;;
82242;SDS011;71844;51.528;4.442;2023-12-14T14:26:01;3.40;;;1.15;;
82242;SDS011;71844;51.528;4.442;2023-12-14T14:28:28;2.70;;;1.25;;
82242;SDS011;71844;51.528;4.442;2023-12-14T14:30:55;3.55;;;1.70;;
82242;SDS011;71844;51.528;4.442;2023-12-14T14:33:22;2.40;;;1.48;;
82242;SDS011;71844;51.528;4.442;2023-12-14T14:35:49;3.35;;;1.30;;
82242;SDS011;71844;51.528;4.442;2023-12-14T14:38:17;2.42;;;1.20;;
82242;SDS011;71844;51.528;4.442;2023-12-14T14:40:44;2.92;;;0.95;;
82242;SDS011;71844;51.528;4.442;2023-12-14T14:43:11;2.50;;;0.93;;
82242;SDS011;71844;51.528;4.442;2023-12-14T14:45:38;3.40;;;1.15;;
82242;SDS011;71844;51.528;4.442;2023-12-14T14:48:06;2.70;;;1.23;;
82242;SDS011;71844;51.528;4.442;2023-12-14T14:50:35;4.22;;;1.20;;
82242;SDS011;71844;51.528;4.442;2023-12-14T14:53:02;1.67;;;1.15;;
82242;SDS011;71844;51.528;4.442;2023-12-14T14:55:29;3.50;;;1.48;;
82242;SDS011;71844;51.528;4.442;2023-12-14T14:57:57;3.25;;;1.15;;
82242;SDS011;71844;51.528;4.442;2023-12-14T15:00:27;2.35;;;1.40;;
82242;SDS011;71844;51.528;4.442;2023-12-14T15:02:55;2.75;;;1.20;;
82242;SDS011;71844;51.528;4.442;2023-12-14T15:05:22;3.05;;;0.65;;
82242;SDS011;71844;51.528;4.442;2023-12-14T15:07:49;2.17;;;0.88;;
82242;SDS011;71844;51.528;4.442;2023-12-14T15:10:16;3.60;;;1.23;;
82242;SDS011;71844;51.528;4.442;2023-12-14T15:12:43;3.30;;;1.33;;
82242;SDS011;71844;51.528;4.442;2023-12-14T15:15:10;3.70;;;0.80;;
82242;SDS011;71844;51.528;4.442;2023-12-14T15:17:37;3.05;;;0.70;;
82242;SDS011;71844;51.528;4.442;2023-12-14T15:20:04;2.35;;;0.73;;